This is the latest recevied weather packets stored in our database for station/object N5KR. If no packets are shown the sender has not sent any weather packets the latest 10 day(s).
| Time | Temp. | Humidity | Pressure | Rain* | Wind** | Luminosity | Snow |
|---|---|---|---|---|---|---|---|
| 1778149504 | 11.11° C | 89% | 1018.8 hPa | 0 mm | - | 0 W/m² | - |
| 1778146803 | 11.67° C | 88% | 1018.4 hPa | 0 mm | - | 0 W/m² | - |
| 1778145304 | 11.67° C | 87% | 1018.2 hPa | 0 mm | - | 0 W/m² | - |
| 1778140807 | 12.78° C | 84% | 1018 hPa | 0 mm | - | 0 W/m² | - |
| 1778139306 | 12.78° C | 84% | 1018 hPa | 0 mm | - | 0 W/m² | - |
| 1778136606 | 13.33° C | 83% | 1018.2 hPa | 0 mm | - | 0 W/m² | - |
| 1778136307 | 13.33° C | 83% | 1017.9 hPa | 0 mm | - | 0 W/m² | - |
| 1778136007 | 13.33° C | 83% | 1017.9 hPa | 0 mm | - | 0 W/m² | - |
| 1778134207 | 13.33° C | 82% | 1017.7 hPa | 0 mm | - | 0 W/m² | - |
| 1778130606 | 13.89° C | 80% | 1017.7 hPa | 0 mm | - | 0 W/m² | - |
| 1778129407 | 13.89° C | 79% | 1017.7 hPa | 0 mm | - | 0 W/m² | - |
| 1778128207 | 14.44° C | 77% | 1017.9 hPa | 0 mm | - | 0 W/m² | - |
| 1778127906 | 14.44° C | 76% | 1017.9 hPa | 0 mm | - | 0 W/m² | - |
| 1778127306 | 15° C | 75% | 1018.2 hPa | 0 mm | - | 0 W/m² | - |
| 1778125807 | 15° C | 74% | 1018.1 hPa | 0 mm | - | 0 W/m² | - |
| 1778125506 | 15° C | 74% | 1018.2 hPa | 0 mm | - | 0 W/m² | - |
| 1778121007 | 15.56° C | 76% | 1016.9 hPa | 0 mm | - | 0 W/m² | - |
| 1778120406 | 15.56° C | 77% | 1016.7 hPa | 0 mm | - | 0 W/m² | - |
| 1778111405 | 16.67° C | 74% | 1014.6 hPa | 0 mm | - | 49 W/m² | - |
| 1778110806 | 16.67° C | 74% | 1014.7 hPa | 0 mm | - | 57 W/m² | - |
| 1778106306 | 16.11° C | 76% | 1014.2 hPa | 0 mm | - | 185 W/m² | - |
| 1778104506 | 16.11° C | 74% | 1013.9 hPa | 0 mm | - | 131 W/m² | - |
| 1778099705 | 15.56° C | 74% | 1014.6 hPa | 0 mm | - | 277 W/m² | - |
| 1778099105 | 15.56° C | 75% | 1014.5 hPa | 0 mm | - | 211 W/m² | - |
| 1778097305 | 15° C | 75% | 1014.9 hPa | 0 mm | - | 286 W/m² | - |
* Rain latest hour (hover to see other rain measurements)
** Current wind speed in m/s (hover to see current wind gust speed)